Time;durP1;ratioP1;P1;durP2;ratioP2;P2;SDS_P1;SDS_P2;PMS_P1;PMS_P2;Temp;Humidity;BMP_temperature;BMP_pressure;BME280_temperature;BME280_humidity;BME280_pressure;Samples;Min_cycle;Max_cycle;Signal;HPM_P1;HPM_P2
2023/09/24 00:01:02;;;;;;;13.07;7.90;;;;;;;21.54;100.00;103107.97;5093887;28;20543;-76
2023/09/24 00:03:27;;;;;;;12.50;8.15;;;;;;;21.63;100.00;103102.56;5093668;28;20020;-75
2023/09/24 00:05:53;;;;;;;13.35;8.30;;;;;;;21.17;100.00;102983.72;5093860;28;20024;-75
2023/09/24 00:08:19;;;;;;;14.43;8.02;;;;;;;21.73;100.00;103054.00;5075991;28;20502;-75
2023/09/24 00:10:52;;;;;;;11.55;7.68;;;;;;;21.61;100.00;103007.69;5093933;28;20413;-75
2023/09/24 00:13:19;;;;;;;11.32;7.65;;;;;;;21.91;100.00;103075.13;5093916;28;20024;-74
2023/09/24 00:15:45;;;;;;;10.18;7.32;;;;;;;21.92;100.00;103058.72;5093687;28;20043;-75
2023/09/24 00:18:10;;;;;;;14.88;8.60;;;;;;;21.96;100.00;103073.31;5093719;28;20032;-75
2023/09/24 00:20:35;;;;;;;11.88;7.93;;;;;;;21.75;100.00;103021.97;5093526;28;20049;-76
2023/09/24 00:23:01;;;;;;;12.07;7.95;;;;;;;21.58;100.00;103037.94;5093620;28;20035;-76
2023/09/24 00:25:28;;;;;;;15.57;9.25;;;;;;;21.65;100.00;103036.03;5093931;28;20024;-75
2023/09/24 00:27:54;;;;;;;11.43;8.40;;;;;;;21.72;100.00;103035.00;5075703;28;20039;-75
2023/09/24 00:30:20;;;;;;;11.98;8.70;;;;;;;21.42;100.00;103005.53;5092944;28;20082;-74
2023/09/24 00:32:45;;;;;;;12.68;9.18;;;;;;;21.32;100.00;102967.81;5074671;28;20032;-75
2023/09/24 00:35:11;;;;;;;14.05;9.15;;;;;;;21.40;100.00;102931.38;5093032;28;20028;-75
2023/09/24 00:37:36;;;;;;;13.45;9.30;;;;;;;21.47;100.00;102917.38;5092987;28;20107;-75
2023/09/24 00:40:02;;;;;;;13.63;8.77;;;;;;;21.42;100.00;102916.66;5092958;28;20028;-75
2023/09/24 00:42:28;;;;;;;10.13;8.68;;;;;;;21.57;100.00;102953.34;5074873;28;20028;-74
2023/09/24 00:44:55;;;;;;;15.52;9.05;;;;;;;21.54;100.00;102962.94;5092519;28;20454;-75
2023/09/24 00:47:22;;;;;;;11.73;9.27;;;;;;;21.38;100.00;102940.91;5093209;28;20040;-75
2023/09/24 00:49:48;;;;;;;13.90;8.63;;;;;;;21.39;100.00;102888.25;5074883;28;20137;-75
2023/09/24 00:52:13;;;;;;;11.82;8.63;;;;;;;21.33;100.00;102831.47;5092390;28;20043;-76
2023/09/24 00:54:40;;;;;;;13.13;8.57;;;;;;;21.51;100.00;102844.72;5092342;28;20066;-75
2023/09/24 00:57:06;;;;;;;10.10;7.93;;;;;;;21.13;100.00;102749.16;5074530;28;20062;-77
2023/09/24 00:59:31;;;;;;;12.73;8.50;;;;;;;21.20;100.00;102744.66;5092666;28;20038;-76
2023/09/24 01:01:58;;;;;;;13.07;8.05;;;;;;;21.30;100.00;102733.16;5092430;28;20032;-75
2023/09/24 01:04:23;;;;;;;12.18;8.13;;;;;;;20.95;100.00;102695.28;5093881;28;20042;-75
2023/09/24 01:06:49;;;;;;;11.98;8.43;;;;;;;21.10;100.00;102676.78;5093588;28;20115;-77
2023/09/24 01:09:17;;;;;;;16.33;9.18;;;;;;;21.21;100.00;102673.88;5093682;28;20038;-77
2023/09/24 01:11:42;;;;;;;16.08;8.35;;;;;;;21.54;100.00;102609.00;5093441;28;20414;-75
2023/09/24 01:14:08;;;;;;;9.82;8.10;;;;;;;21.37;100.00;102619.00;5074992;28;20035;-75
2023/09/24 01:16:33;;;;;;;13.98;8.80;;;;;;;21.00;100.00;102620.09;5092991;28;20468;-73
2023/09/24 01:18:59;;;;;;;11.88;8.88;;;;;;;21.33;100.00;102596.69;5074478;28;20032;-75
2023/09/24 01:21:27;;;;;;;16.17;8.75;;;;;;;21.15;100.00;102555.00;5093156;28;20042;-76
2023/09/24 01:23:54;;;;;;;11.45;8.70;;;;;;;21.08;100.00;102486.19;5093165;28;20032;-73
2023/09/24 01:26:21;;;;;;;15.73;8.50;;;;;;;21.02;100.00;102463.97;5092881;28;20114;-75
2023/09/24 01:28:47;;;;;;;12.77;8.27;;;;;;;21.18;100.00;102441.88;5092734;28;20024;-75
2023/09/24 01:31:15;;;;;;;13.57;9.18;;;;;;;20.96;100.00;102336.50;5092839;28;20054;-79
2023/09/24 01:33:41;;;;;;;10.85;8.85;;;;;;;20.82;100.00;102305.91;5093418;28;20030;-80
2023/09/24 01:36:10;;;;;;;12.25;9.00;;;;;;;20.80;100.00;102262.91;5091514;28;20040;-80
2023/09/24 01:38:45;;;;;;;13.32;8.77;;;;;;;20.93;100.00;102223.66;5093119;28;20032;-80
2023/09/24 01:41:11;;;;;;;14.70;8.95;;;;;;;21.10;100.00;102135.94;5092426;28;20035;-79
2023/09/24 01:43:43;;;;;;;15.35;9.27;;;;;;;20.99;100.00;102090.63;5091596;28;20020;-78
2023/09/24 01:46:10;;;;;;;13.25;8.85;;;;;;;21.21;100.00;102043.25;5074106;28;20024;-77
2023/09/24 01:48:36;;;;;;;11.55;8.52;;;;;;;20.55;100.00;101806.16;5092774;28;20028;-78
2023/09/24 01:51:10;;;;;;;16.30;9.40;;;;;;;20.80;100.00;101683.63;5092838;28;20035;-77
2023/09/24 01:53:38;;;;;;;13.32;8.98;;;;;;;21.07;100.00;101485.84;5092474;28;20032;-73
2023/09/24 01:56:06;;;;;;;13.40;8.55;;;;;;;21.08;100.00;101412.50;5091220;28;20470;-80
2023/09/24 01:58:32;;;;;;;9.63;8.50;;;;;;;20.90;100.00;101286.66;5092209;28;20035;-77
2023/09/24 02:00:57;;;;;;;12.18;8.35;;;;;;;20.83;100.00;101273.19;5073816;28;20024;-78
2023/09/24 02:03:23;;;;;;;14.07;9.07;;;;;;;21.16;100.00;101260.31;5092197;28;20020;-76
2023/09/24 02:05:48;;;;;;;12.70;9.60;;;;;;;21.11;100.00;101231.28;5073758;28;20038;-76
2023/09/24 02:08:15;;;;;;;12.88;9.02;;;;;;;20.74;100.00;101165.88;5091553;28;20070;-75
2023/09/24 02:10:41;;;;;;;13.23;9.05;;;;;;;20.82;100.00;101110.38;5092252;28;20564;-75
2023/09/24 02:13:11;;;;;;;12.57;9.18;;;;;;;20.78;100.00;101083.00;5092160;28;20028;-74
2023/09/24 02:15:38;;;;;;;10.85;8.57;;;;;;;21.01;100.00;101080.91;5092037;28;20045;-74
2023/09/24 02:18:04;;;;;;;13.40;8.60;;;;;;;20.38;100.00;100965.38;5073844;28;20035;-75
2023/09/24 02:22:57;;;;;;;14.38;9.68;;;;;;;20.52;100.00;100639.91;5091852;28;20139;-76
2023/09/24 02:25:28;;;;;;;14.48;9.18;;;;;;;20.62;100.00;100649.59;5092953;28;20482;-76
2023/09/24 02:27:55;;;;;;;11.98;9.05;;;;;;;20.31;100.00;100577.38;5092247;28;20067;-79
2023/09/24 02:30:22;;;;;;;13.10;9.13;;;;;;;20.47;100.00;100539.38;5091961;28;20048;-77
2023/09/24 02:32:48;;;;;;;12.43;8.88;;;;;;;20.81;100.00;100535.59;5092314;28;20028;-79
2023/09/24 02:35:14;;;;;;;12.68;8.68;;;;;;;20.32;100.00;100436.97;5091950;28;20032;-74
2023/09/24 02:37:44;;;;;;;12.68;9.63;;;;;;;20.25;100.00;100425.34;5092399;28;20069;-74
2023/09/24 02:40:23;;;;;;;11.43;8.85;;;;;;;20.64;100.00;100459.09;5074412;28;20028;-77
2023/09/24 02:42:57;;;;;;;16.33;10.38;;;;;;;20.71;100.00;100501.75;5092677;28;20024;-77
2023/09/24 02:45:24;;;;;;;13.43;9.65;;;;;;;20.74;100.00;100496.38;5091659;28;20036;-78
2023/09/24 02:47:50;;;;;;;13.88;9.45;;;;;;;20.40;100.00;100439.09;5091940;28;20130;-74
2023/09/24 02:50:23;;;;;;;13.70;9.13;;;;;;;20.63;100.00;100482.44;5091591;28;20043;-76
2023/09/24 02:52:52;;;;;;;16.17;10.30;;;;;;;20.70;100.00;100499.22;5092193;28;20028;-76
2023/09/24 02:55:18;;;;;;;16.88;9.65;;;;;;;20.68;100.00;100511.41;5091887;28;20024;-74
2023/09/24 02:57:45;;;;;;;12.00;9.75;;;;;;;20.74;100.00;100535.13;5094929;28;20024;-76
2023/09/24 03:00:18;;;;;;;15.25;9.82;;;;;;;20.64;100.00;100552.13;5095412;28;20065;-76
2023/09/24 03:02:44;;;;;;;15.50;10.13;;;;;;;20.30;100.00;100544.72;5095186;28;20408;-77
2023/09/24 03:05:15;;;;;;;15.35;10.13;;;;;;;20.08;100.00;100526.22;5094740;28;20039;-76
2023/09/24 03:07:41;;;;;;;11.50;9.80;;;;;;;20.41;100.00;100643.09;5095844;28;20808;-75
2023/09/24 03:10:10;;;;;;;13.70;9.63;;;;;;;20.00;100.00;100656.66;5094894;28;20035;-77
2023/09/24 03:12:36;;;;;;;13.52;10.18;;;;;;;20.54;100.00;100741.41;5095061;28;20089;-75
2023/09/24 03:15:03;;;;;;;13.38;9.45;;;;;;;20.23;100.00;100734.53;5094920;28;20028;-75
2023/09/24 03:17:28;;;;;;;15.35;10.45;;;;;;;20.06;100.00;100760.44;5095470;28;20032;-77
2023/09/24 03:19:54;;;;;;;16.40;10.02;;;;;;;20.16;100.00;100796.91;5095565;28;20024;-76
2023/09/24 03:22:21;;;;;;;16.73;9.98;;;;;;;20.17;100.00;100847.63;5095739;28;20084;-76
2023/09/24 03:24:47;;;;;;;16.58;10.25;;;;;;;20.37;100.00;100907.69;5076857;28;20031;-78
2023/09/24 03:27:13;;;;;;;13.80;10.40;;;;;;;20.33;100.00;100939.78;5095048;28;20024;-75
2023/09/24 03:29:39;;;;;;;14.50;10.27;;;;;;;20.41;100.00;100978.13;5094323;28;20028;-77
2023/09/24 03:32:04;;;;;;;13.57;10.90;;;;;;;20.38;100.00;101035.13;5095388;28;20149;-77
2023/09/24 03:34:30;;;;;;;13.52;9.88;;;;;;;20.40;100.00;101012.63;5095166;28;20402;-78
2023/09/24 03:36:55;;;;;;;17.83;10.50;;;;;;;20.35;100.00;101085.22;5095249;28;20020;-77
2023/09/24 03:39:20;;;;;;;14.48;10.50;;;;;;;20.21;100.00;101128.13;5094684;28;20034;-77
2023/09/24 03:41:46;;;;;;;15.13;10.32;;;;;;;19.83;100.00;101556.75;5094494;28;20479;-74
2023/09/24 03:44:12;;;;;;;16.35;10.70;;;;;;;19.98;100.00;101601.78;5094332;28;20028;-75
2023/09/24 03:46:37;;;;;;;13.77;9.82;;;;;;;20.03;100.00;101612.75;5094113;28;20028;-75
2023/09/24 03:49:02;;;;;;;13.82;10.95;;;;;;;20.11;100.00;101683.00;5094666;28;20086;-76
2023/09/24 03:51:28;;;;;;;16.90;10.70;;;;;;;19.98;100.00;101717.97;5094253;28;20074;-75
2023/09/24 03:53:53;;;;;;;14.18;10.00;;;;;;;19.77;100.00;101742.88;5093445;28;20043;-75
2023/09/24 03:56:19;;;;;;;12.82;10.05;;;;;;;20.14;100.00;101790.53;5093372;28;20119;-77
2023/09/24 03:58:44;;;;;;;16.35;10.70;;;;;;;20.33;100.00;101825.13;5075003;28;20324;-74
2023/09/24 04:01:10;;;;;;;14.48;9.95;;;;;;;20.17;100.00;101837.78;5075594;28;20059;-74
2023/09/24 04:03:37;;;;;;;16.98;11.18;;;;;;;20.31;100.00;101871.72;5093614;28;20104;-75
2023/09/24 04:06:12;;;;;;;16.38;10.88;;;;;;;19.74;100.00;101835.09;5076054;28;20028;-75
2023/09/24 04:08:38;;;;;;;14.10;10.60;;;;;;;19.91;100.00;101878.38;5092930;28;20024;-76
2023/09/24 04:11:09;;;;;;;17.05;10.32;;;;;;;20.00;100.00;101940.03;5093713;28;20077;-76
2023/09/24 04:13:38;;;;;;;14.23;10.55;;;;;;;19.94;100.00;101972.06;5075899;28;20118;-76
2023/09/24 04:16:22;;;;;;;17.92;10.43;;;;;;;20.15;100.00;102066.06;5075818;28;20044;-78
2023/09/24 04:18:48;;;;;;;15.73;10.60;;;;;;;20.41;100.00;102143.56;5090220;28;20039;-76
2023/09/24 04:21:15;;;;;;;13.30;10.65;;;;;;;20.32;100.00;102180.88;5092577;28;20111;-74
2023/09/24 04:23:41;;;;;;;14.05;10.55;;;;;;;20.57;100.00;102206.78;5092602;28;20062;-72
2023/09/24 04:26:06;;;;;;;16.55;10.77;;;;;;;20.51;100.00;102228.53;5092366;28;20115;-72
2023/09/24 04:28:33;;;;;;;14.18;10.48;;;;;;;20.66;100.00;102253.00;5093423;28;20105;-75
2023/09/24 04:30:58;;;;;;;14.70;10.73;;;;;;;20.41;100.00;102254.72;5093049;28;20079;-75
2023/09/24 04:33:23;;;;;;;15.40;10.60;;;;;;;19.94;100.00;102209.69;5074840;28;20140;-74
2023/09/24 04:35:49;;;;;;;14.40;10.48;;;;;;;20.20;100.00;102243.34;5092905;28;20032;-75
2023/09/24 04:38:16;;;;;;;13.68;10.60;;;;;;;19.91;100.00;102220.09;5092582;28;20036;-73
2023/09/24 04:40:41;;;;;;;14.93;10.80;;;;;;;20.48;100.00;102285.47;5092483;28;20028;-74
2023/09/24 04:43:07;;;;;;;13.95;10.18;;;;;;;20.45;100.00;102290.75;5092641;28;20054;-75
2023/09/24 04:45:34;;;;;;;13.98;10.57;;;;;;;20.39;100.00;102290.09;5093284;28;20020;-75
2023/09/24 04:48:00;;;;;;;13.02;9.98;;;;;;;20.09;100.00;102258.28;5093137;28;20491;-75
2023/09/24 04:50:25;;;;;;;15.40;10.32;;;;;;;20.73;100.00;102321.75;5092968;28;20024;-75
2023/09/24 04:52:54;;;;;;;15.27;10.10;;;;;;;20.47;100.00;102281.22;5092860;28;20052;-75
2023/09/24 04:55:20;;;;;;;14.50;10.50;;;;;;;20.97;100.00;102341.66;5092391;28;20127;-74
2023/09/24 04:57:46;;;;;;;13.93;10.07;;;;;;;20.79;100.00;102334.47;5092227;28;20574;-75
2023/09/24 05:00:13;;;;;;;11.00;9.43;;;;;;;20.55;100.00;102293.88;5074411;28;20160;-74
2023/09/24 05:02:38;;;;;;;13.88;9.88;;;;;;;20.50;100.00;102270.75;5092263;28;20027;-75
2023/09/24 05:05:04;;;;;;;13.75;8.32;;;;;;;20.86;100.00;102307.50;5092285;28;20035;-75
2023/09/24 05:07:29;;;;;;;14.05;9.77;;;;;;;21.02;100.00;102354.44;5091850;28;20040;-73
2023/09/24 05:09:55;;;;;;;15.48;9.88;;;;;;;21.07;100.00;102324.94;5073926;28;20926;-74
2023/09/24 05:12:22;;;;;;;14.43;9.02;;;;;;;21.51;100.00;102376.03;5092301;28;20024;-75
2023/09/24 05:14:48;;;;;;;14.43;9.20;;;;;;;21.70;100.00;102384.00;5092138;28;20029;-75
2023/09/24 05:17:13;;;;;;;13.90;9.43;;;;;;;21.72;100.00;102360.63;5091642;28;20028;-75
2023/09/24 05:19:39;;;;;;;13.55;9.20;;;;;;;22.18;100.00;102369.31;5073336;28;20111;-74
2023/09/24 05:22:05;;;;;;;15.60;9.52;;;;;;;21.77;100.00;102297.38;5091846;28;20057;-75
2023/09/24 05:24:31;;;;;;;13.88;9.20;;;;;;;21.56;100.00;102265.38;5073958;28;20035;-74
2023/09/24 05:26:57;;;;;;;14.20;9.20;;;;;;;21.95;100.00;102267.38;5092146;28;20061;-75
2023/09/24 05:29:23;;;;;;;14.10;8.85;;;;;;;22.66;100.00;102325.06;5091871;28;20115;-75
2023/09/24 05:31:49;;;;;;;11.10;8.60;;;;;;;22.35;100.00;102236.41;5074061;28;20044;-74
2023/09/24 05:34:15;;;;;;;13.90;8.70;;;;;;;22.99;100.00;102309.88;5091768;28;20140;-74
2023/09/24 05:36:40;;;;;;;12.88;8.65;;;;;;;23.03;100.00;102290.66;5073642;28;20028;-74
2023/09/24 05:39:06;;;;;;;12.57;8.32;;;;;;;22.38;100.00;102194.81;5073657;28;20115;-74
2023/09/24 05:41:31;;;;;;;14.98;8.27;;;;;;;22.99;100.00;102219.88;5074039;28;20035;-76
2023/09/24 05:44:02;;;;;;;11.75;7.97;;;;;;;22.92;100.00;102143.19;5092413;28;20028;-75
2023/09/24 05:46:28;;;;;;;13.50;7.90;;;;;;;22.82;100.00;102042.47;5092375;28;20563;-75
2023/09/24 05:48:58;;;;;;;11.90;7.70;;;;;;;23.36;100.00;102026.94;5092322;28;20069;-74
2023/09/24 05:51:24;;;;;;;12.15;7.28;;;;;;;23.59;100.00;101974.69;5091865;28;20474;-79
2023/09/24 05:53:50;;;;;;;12.63;7.57;;;;;;;22.92;100.00;101971.91;5091701;28;20501;-76
2023/09/24 05:56:15;;;;;;;12.82;7.40;;;;;;;23.46;100.00;101971.03;5073991;28;20036;-76
2023/09/24 05:58:41;;;;;;;12.35;7.55;;;;;;;23.53;100.00;101904.03;5092644;28;20032;-77
2023/09/24 06:01:06;;;;;;;11.55;7.28;;;;;;;23.52;100.00;101900.59;5092188;28;20107;-76
2023/09/24 06:03:32;;;;;;;11.90;6.97;;;;;;;23.26;100.00;101834.38;5091527;28;20117;-76
2023/09/24 06:05:57;;;;;;;13.18;7.38;;;;;;;23.53;100.00;101852.09;5091529;28;20113;-74
2023/09/24 06:08:23;;;;;;;12.23;7.30;;;;;;;24.08;100.00;101836.13;5091885;28;20082;-75
2023/09/24 06:10:48;;;;;;;10.95;7.63;;;;;;;23.87;100.00;101761.88;5091880;28;20127;-77
2023/09/24 06:13:15;;;;;;;12.20;7.35;;;;;;;24.17;100.00;101725.56;5091917;28;20028;-76
2023/09/24 06:15:44;;;;;;;12.70;7.03;;;;;;;24.47;100.00;101730.78;5092488;28;20113;-78
2023/09/24 06:18:11;;;;;;;13.88;6.80;;;;;;;24.59;100.00;101725.72;5092301;28;20032;-75
2023/09/24 06:20:38;;;;;;;10.32;6.35;;;;;;;24.39;100.00;101663.63;5092050;28;20110;-75
2023/09/24 06:23:03;;;;;;;11.27;7.00;;;;;;;24.29;100.00;101581.84;5092569;28;20156;-76
2023/09/24 06:25:29;;;;;;;14.43;6.57;;;;;;;24.66;100.00;101609.94;5092009;28;20479;-76
2023/09/24 06:27:54;;;;;;;11.25;6.53;;;;;;;24.21;100.00;101489.63;5091924;28;20028;-76
2023/09/24 06:30:20;;;;;;;12.32;6.50;;;;;;;25.06;100.00;101577.13;5091592;28;20048;-76
2023/09/24 06:32:45;;;;;;;13.80;6.57;;;;;;;25.70;100.00;101538.25;5094933;28;20474;-74
2023/09/24 06:35:11;;;;;;;12.52;6.65;;;;;;;25.51;100.00;101456.19;5094867;28;20119;-76
2023/09/24 06:37:36;;;;;;;11.63;6.72;;;;;;;25.84;100.00;101406.16;5076981;28;20551;-76
2023/09/24 06:40:02;;;;;;;13.48;6.50;;;;;;;26.27;100.00;101355.31;5096056;28;20063;-79
2023/09/24 06:42:27;;;;;;;10.77;6.38;;;;;;;25.51;100.00;101321.50;5095782;28;20490;-79
2023/09/24 06:44:53;;;;;;;13.20;6.40;;;;;;;26.11;100.00;101509.41;5095855;28;20136;-80
2023/09/24 06:47:19;;;;;;;15.85;6.47;;;;;;;25.89;100.00;101604.81;5096032;28;20509;-76
2023/09/24 06:49:48;;;;;;;14.85;6.40;;;;;;;26.40;100.00;101734.44;5095405;28;20028;-78
2023/09/24 06:52:13;;;;;;;11.30;6.20;;;;;;;26.14;100.00;101996.16;5096207;28;20528;-77
2023/09/24 06:54:39;;;;;;;11.63;5.78;;;;;;;26.24;100.00;102201.63;5094827;28;20036;-77
2023/09/24 06:57:04;;;;;;;13.40;5.20;;;;;;;26.47;100.00;102356.88;5095227;28;20170;-75
2023/09/24 06:59:30;;;;;;;9.68;5.18;;;;;;;26.48;100.00;103306.22;5095883;28;20095;-80
2023/09/24 07:01:55;;;;;;;242.13;158.40;;;;;;;26.78;100.00;103323.22;5095422;28;20482;-80
2023/09/24 07:04:20;;;;;;;13.63;5.20;;;;;;;27.20;100.00;103465.16;5095428;28;20060;-77
2023/09/24 07:06:46;;;;;;;6.70;4.65;;;;;;;26.79;100.00;103434.66;5077163;28;20036;-80
2023/09/24 07:09:12;;;;;;;11.25;4.93;;;;;;;26.98;100.00;103474.78;5095716;28;20051;-80
2023/09/24 07:11:38;;;;;;;12.05;5.57;;;;;;;26.90;100.00;103435.06;5095512;28;20024;-80
2023/09/24 07:14:06;;;;;;;11.80;5.45;;;;;;;26.98;100.00;103346.75;5095690;28;20119;-80
2023/09/24 07:16:33;;;;;;;11.07;4.88;;;;;;;27.40;100.00;103418.13;5095525;28;20028;-80
2023/09/24 07:18:58;;;;;;;24.13;6.28;;;;;;;28.04;100.00;103677.91;5095216;28;20421;-77
2023/09/24 07:21:26;;;;;;;14.63;5.45;;;;;;;27.19;100.00;103602.00;5095071;28;20028;-81
2023/09/24 07:23:55;;;;;;;12.60;5.82;;;;;;;28.38;100.00;103622.31;5094748;28;20028;-75
2023/09/24 07:26:22;;;;;;;11.15;5.30;;;;;;;28.15;100.00;103476.69;5095112;28;20062;-76
2023/09/24 07:28:48;;;;;;;9.70;5.32;;;;;;;28.14;100.00;103756.91;5094986;28;20110;-80
2023/09/24 07:31:21;;;;;;;17.70;5.47;;;;;;;27.20;100.00;104304.38;5094465;28;20628;-79
2023/09/24 07:33:48;;;;;;;10.57;7.35;;;;;;;27.40;100.00;104045.75;5077125;28;20119;-81
2023/09/24 07:36:14;;;;;;;14.25;5.20;;;;;;;27.99;100.00;103877.97;5076943;28;20036;-79
2023/09/24 07:38:42;;;;;;;11.27;5.30;;;;;;;28.30;100.00;103676.78;5095272;28;20490;-82
2023/09/24 07:41:08;;;;;;;9.00;5.15;;;;;;;27.78;100.00;103419.06;5076766;28;20119;-81
2023/09/24 07:43:36;;;;;;;12.88;5.40;;;;;;;27.49;100.00;103040.31;5081874;28;20110;-81
2023/09/24 07:46:02;;;;;;;12.45;5.22;;;;;;;28.46;100.00;102747.16;5074139;28;20039;-78
2023/09/24 07:48:27;;;;;;;12.90;5.13;;;;;;;28.15;100.00;102230.69;5074752;28;20086;-82
2023/09/24 07:50:54;;;;;;;11.63;5.03;;;;;;;28.69;100.00;102131.94;5056610;28;20044;-72
2023/09/24 07:53:22;;;;;;;9.02;5.15;;;;;;;29.02;100.00;102272.84;5074728;28;20029;-78
2023/09/24 07:55:56;;;;;;;14.25;5.10;;;;;;;29.27;100.00;102089.38;5074131;28;20085;-79
2023/09/24 07:58:23;;;;;;;10.85;5.07;;;;;;;28.88;100.00;101828.38;5074295;28;20032;-81
2023/09/24 08:00:50;;;;;;;13.55;5.22;;;;;;;29.31;100.00;101733.41;5074688;28;20036;-80
2023/09/24 08:03:16;;;;;;;10.50;5.00;;;;;;;29.45;100.00;101628.28;5056803;28;20098;-79
2023/09/24 08:05:42;;;;;;;19.90;5.20;;;;;;;28.98;100.00;101433.72;5073979;28;20028;-79
2023/09/24 08:08:07;;;;;;;13.32;5.05;;;;;;;28.90;100.00;101312.19;5074294;28;20043;-80
2023/09/24 08:10:33;;;;;;;11.73;5.10;;;;;;;28.98;100.00;101127.19;5074235;28;20475;-80
2023/09/24 08:12:59;;;;;;;15.50;4.95;;;;;;;29.36;100.00;100900.22;5074349;28;20116;-79
2023/09/24 08:15:24;;;;;;;11.63;5.07;;;;;;;29.33;100.00;100644.50;5073366;28;20050;-80
2023/09/24 08:17:49;;;;;;;12.95;5.13;;;;;;;28.95;100.00;100537.25;5073902;28;20025;-79
2023/09/24 08:20:15;;;;;;;12.70;5.45;;;;;;;29.29;100.00;100516.50;5055868;28;20037;-77
2023/09/24 08:22:41;;;;;;;10.60;5.05;;;;;;;29.41;100.00;100448.00;5073791;28;20502;-80
2023/09/24 08:25:07;;;;;;;12.05;5.05;;;;;;;29.58;100.00;100507.44;5073243;28;20055;-81
2023/09/24 08:27:33;;;;;;;14.60;5.38;;;;;;;29.85;100.00;100475.88;5072611;28;20491;-82
2023/09/24 08:29:58;;;;;;;14.20;5.20;;;;;;;29.40;100.00;100453.38;5071935;28;20045;-80
2023/09/24 08:32:23;;;;;;;12.00;4.57;;;;;;;29.50;100.00;100494.25;5073158;28;20125;-79
2023/09/24 08:34:49;;;;;;;14.23;5.30;;;;;;;29.75;100.00;100472.50;5072248;28;20179;-81
2023/09/24 08:37:14;;;;;;;11.52;4.70;;;;;;;29.98;100.00;100488.59;5073345;28;20031;-80
2023/09/24 08:39:40;;;;;;;10.88;4.93;;;;;;;30.20;100.00;100481.97;5073285;28;20036;-81
2023/09/24 08:42:08;;;;;;;14.68;4.80;;;;;;;29.85;100.00;100447.00;5073280;28;20090;-80
2023/09/24 08:44:39;;;;;;;11.07;4.70;;;;;;;30.23;100.00;100439.69;5072748;28;20052;-80
2023/09/24 08:47:05;;;;;;;12.00;4.73;;;;;;;30.80;100.00;100450.22;5055915;28;20067;-79
2023/09/24 08:49:30;;;;;;;8.23;4.60;;;;;;;30.67;100.00;100391.28;5073841;28;20024;-77
2023/09/24 08:51:58;;;;;;;9.75;4.25;;;;;;;30.73;100.00;100449.25;5073643;28;20031;-82
2023/09/24 08:54:24;;;;;;;12.32;4.45;;;;;;;30.89;100.00;100442.41;5073299;28;20031;-78
2023/09/24 08:56:50;;;;;;;14.27;4.60;;;;;;;30.36;100.00;100417.31;5073054;28;20032;-81
2023/09/24 08:59:15;;;;;;;12.52;4.30;;;;;;;29.64;100.00;100374.91;5072348;28;20029;-82
2023/09/24 09:01:41;;;;;;;11.40;4.43;;;;;;;30.60;100.00;100366.66;5072815;28;20034;-80
2023/09/24 09:04:06;;;;;;;15.07;4.80;;;;;;;30.37;100.00;100405.81;5072217;28;20028;-79
2023/09/24 09:06:34;;;;;;;14.35;4.82;;;;;;;30.68;100.00;100471.72;5073019;28;20029;-81
2023/09/24 09:09:00;;;;;;;13.18;4.75;;;;;;;30.15;100.00;100385.34;5072906;28;20111;-75
2023/09/24 09:11:38;;;;;;;11.38;4.53;;;;;;;30.92;100.00;100500.69;5072760;28;20165;-76
2023/09/24 09:14:04;;;;;;;12.98;4.47;;;;;;;30.86;100.00;100522.38;5073092;28;20039;-79
2023/09/24 09:16:31;;;;;;;12.07;4.97;;;;;;;31.23;100.00;100458.88;5054961;28;20036;-79
2023/09/24 09:19:00;;;;;;;10.60;4.50;;;;;;;31.04;100.00;100515.19;5073048;28;20028;-80
2023/09/24 09:21:26;;;;;;;20.98;5.32;;;;;;;31.28;100.00;100531.00;5072585;28;20055;-77
2023/09/24 09:23:52;;;;;;;15.60;4.72;;;;;;;30.85;100.00;100477.84;5055326;28;20093;-80
2023/09/24 09:26:17;;;;;;;14.35;4.63;;;;;;;31.75;100.00;100554.94;5072749;28;20032;-83
2023/09/24 09:28:43;;;;;;;11.35;4.70;;;;;;;31.10;100.00;100574.19;5072884;28;20024;-81
2023/09/24 09:31:12;;;;;;;14.38;4.88;;;;;;;31.18;100.00;100590.00;5071983;28;20603;-78
2023/09/24 09:33:41;;;;;;;12.02;4.53;;;;;;;30.99;100.00;100585.81;5072391;28;20115;-81
2023/09/24 09:36:30;;;;;;;14.27;4.60;;;;;;;31.35;100.00;100591.66;5072453;28;20025;-79
2023/09/24 09:38:57;;;;;;;13.38;5.22;;;;;;;31.25;100.00;100578.66;5054437;28;20502;-79
2023/09/24 09:41:24;;;;;;;15.20;4.63;;;;;;;31.02;100.00;100550.50;5072727;28;20071;-79
2023/09/24 09:43:52;;;;;;;11.68;5.07;;;;;;;31.06;100.00;100538.69;5072359;28;20077;-80
2023/09/24 09:46:19;;;;;;;13.68;5.28;;;;;;;31.45;100.00;100581.84;5072432;28;20032;-80
2023/09/24 09:49:09;;;;;;;12.63;4.90;;;;;;;32.06;100.00;100595.41;5072150;28;20127;-79
2023/09/24 09:51:57;;;;;;;11.60;4.63;;;;;;;31.99;100.00;100586.50;5068209;28;20024;-79
2023/09/24 09:54:24;;;;;;;13.35;4.78;;;;;;;31.80;100.00;100578.91;5072307;28;20035;-79
2023/09/24 09:56:50;;;;;;;13.73;4.65;;;;;;;31.59;100.00;100521.53;5072171;28;20040;-80
2023/09/24 09:59:16;;;;;;;12.68;5.20;;;;;;;31.32;100.00;100542.84;5071973;28;20074;-79
2023/09/24 10:01:42;;;;;;;11.73;4.38;;;;;;;31.44;100.00;100514.44;5071619;28;20113;-77
2023/09/24 10:04:09;;;;;;;13.40;5.20;;;;;;;31.95;100.00;100513.31;5072665;28;20170;-80
2023/09/24 10:06:37;;;;;;;14.75;5.22;;;;;;;31.93;100.00;100492.41;5073665;28;20028;-77
2023/09/24 10:09:29;;;;;;;10.05;5.03;;;;;;;32.28;100.00;100544.69;5077157;28;20020;-80
2023/09/24 10:11:56;;;;;;;14.90;5.05;;;;;;;32.37;100.00;100498.88;5076574;28;20074;-79
2023/09/24 10:14:34;;;;;;;12.75;4.90;;;;;;;32.67;100.00;100549.19;5076561;28;20055;-79
2023/09/24 10:17:19;;;;;;;15.35;5.30;;;;;;;32.26;100.00;100544.03;5076617;28;20028;-79
2023/09/24 10:19:49;;;;;;;16.45;5.03;;;;;;;32.80;100.00;100549.47;5076159;28;20032;-79
2023/09/24 10:22:27;;;;;;;16.83;4.68;;;;;;;32.23;100.00;100544.34;5076463;28;20032;-79
2023/09/24 10:24:53;;;;;;;12.10;4.57;;;;;;;32.08;100.00;100489.94;5058506;28;20089;-75
2023/09/24 10:27:26;;;;;;;11.80;4.78;;;;;;;32.07;100.00;100531.22;5075788;28;20032;-80
2023/09/24 10:29:53;;;;;;;11.98;4.88;;;;;;;32.91;100.00;100546.44;5076155;28;20090;-80
2023/09/24 10:32:21;;;;;;;10.85;4.60;;;;;;;32.71;100.00;100503.06;5058280;28;20463;-80
2023/09/24 10:34:55;;;;;;;14.02;4.65;;;;;;;33.08;100.00;100537.50;5076062;28;20119;-79
2023/09/24 10:37:24;;;;;;;15.20;4.82;;;;;;;33.22;100.00;100531.44;5076229;28;20071;-81
2023/09/24 10:40:05;;;;;;;11.40;4.60;;;;;;;32.83;100.00;100485.88;5076284;28;20170;-80
2023/09/24 10:42:32;;;;;;;12.93;4.55;;;;;;;32.38;100.00;100476.03;5058083;28;20096;-79
2023/09/24 10:45:06;;;;;;;14.40;4.57;;;;;;;32.84;100.00;100524.41;5075945;28;20040;-81
2023/09/24 10:47:35;;;;;;;16.33;5.05;;;;;;;33.26;100.00;100517.75;5075502;28;20479;-82
2023/09/24 10:50:23;;;;;;;11.45;4.43;;;;;;;33.32;100.00;100515.41;5075681;28;20024;-80
2023/09/24 10:52:59;;;;;;;15.52;5.25;;;;;;;33.00;100.00;100529.63;5075573;28;20035;-79
2023/09/24 10:55:30;;;;;;;11.52;4.82;;;;;;;32.73;100.00;100527.41;5075619;28;20033;-80
2023/09/24 10:57:57;;;;;;;11.27;4.78;;;;;;;33.47;100.00;100485.44;5057605;28;20043;-81
2023/09/24 11:00:27;;;;;;;14.93;4.82;;;;;;;33.08;100.00;100525.13;5075864;28;20052;-80
2023/09/24 11:02:59;;;;;;;12.52;4.90;;;;;;;32.54;100.00;100467.25;5058102;28;20100;-77
2023/09/24 11:05:25;;;;;;;15.50;4.70;;;;;;;33.07;100.00;100473.41;5057743;28;20036;-79
2023/09/24 11:07:52;;;;;;;15.10;5.13;;;;;;;33.36;100.00;100493.78;5075745;28;20032;-79
2023/09/24 11:10:18;;;;;;;13.23;4.70;;;;;;;33.43;100.00;100451.69;5074912;28;20048;-78
2023/09/24 11:12:51;;;;;;;11.30;4.78;;;;;;;33.88;100.00;100505.22;5074892;28;20471;-78